Terminal Aerodrome Forecast
Issued by NWS Jacksonville, FL

Home | Current Version | Previous Version | Text Only | Print | Product List | Glossary On
Versions: 1 2 3 4 5 6 7 8 9 10 11 12 13 14 15 16 17 18
000
FTUS42 KJAX 250520
TAFSSI
TAF
KSSI 250520Z 2506/2606 10010KT P6SM SCT015 BKN035
      TEMPO 2507/2511 BKN030
     FM251200 10012KT P6SM VCSH BKN030
     FM251500 12014G21KT P6SM BKN035
     FM252300 13010KT P6SM SCT035=

USA.gov is the U.S. government's official web portal to all federal, state and local government web resources and services.